createdAt,value
2022-12-31T00:03:36.183Z,98805.03
2022-12-31T00:08:38.310Z,98793.66
2022-12-31T00:13:40.214Z,98787.59
2022-12-31T00:18:46.039Z,98781.53
2022-12-31T00:23:48.066Z,98777.16
2022-12-31T00:28:49.872Z,98777.19
2022-12-31T00:33:51.814Z,98769.41
2022-12-31T00:38:54.556Z,98776.38
2022-12-31T00:43:56.881Z,98777.09
2022-12-31T00:48:58.764Z,98769.25
2022-12-31T00:54:00.661Z,98773.56
2022-12-31T00:59:02.403Z,98765.75
2022-12-31T01:04:09.145Z,98770.94
2022-12-31T01:09:11.846Z,98765.81
2022-12-31T01:14:14.745Z,98765.03
2022-12-31T01:19:21.594Z,98766.78
2022-12-31T01:24:23.604Z,98773.75
2022-12-31T01:29:25.511Z,98772.91
2022-12-31T01:34:27.432Z,98771.19
2022-12-31T01:39:29.264Z,98774.66
2022-12-31T01:44:31.035Z,98773.00
2022-12-31T01:49:49.465Z,98783.41
2022-12-31T01:54:54.482Z,98780.88
2022-12-31T01:59:56.237Z,98778.31
2022-12-31T02:04:58.392Z,98779.97
2022-12-31T02:10:00.263Z,98774.06
2022-12-31T02:15:02.128Z,98774.00
2022-12-31T02:20:13.938Z,98778.28
2022-12-31T02:25:23.321Z,98777.41
2022-12-31T02:30:25.438Z,98778.28
2022-12-31T02:35:34.796Z,98785.19
2022-12-31T02:40:36.912Z,98787.78
2022-12-31T02:45:43.459Z,98791.25
2022-12-31T02:50:52.067Z,98795.66
2022-12-31T02:55:59.082Z,98788.72
2022-12-31T03:01:00.985Z,98798.25
2022-12-31T03:06:03.571Z,98793.91
2022-12-31T03:11:05.457Z,98802.63
2022-12-31T03:16:07.437Z,98787.91
2022-12-31T03:21:15.098Z,98787.16
2022-12-31T03:26:16.942Z,98796.66
2022-12-31T03:31:18.936Z,98793.13
2022-12-31T03:36:20.913Z,98812.25
2022-12-31T03:41:22.656Z,98805.34
2022-12-31T03:46:24.502Z,98814.06
2022-12-31T03:51:26.320Z,98823.53
2022-12-31T03:56:28.297Z,98820.03
2022-12-31T04:01:30.354Z,98814.03
2022-12-31T04:06:32.219Z,98821.00
2022-12-31T04:11:34.041Z,98826.22
2022-12-31T04:16:35.914Z,98814.16
2022-12-31T04:21:37.829Z,98824.66
2022-12-31T04:26:39.687Z,98841.91
2022-12-31T04:31:41.486Z,98849.69
2022-12-31T04:36:43.325Z,98873.06
2022-12-31T04:41:45.099Z,98876.56
2022-12-31T04:46:46.970Z,98889.50
2022-12-31T04:51:48.751Z,98898.13
2022-12-31T04:56:50.627Z,98895.66
2022-12-31T05:01:54.145Z,98895.69
2022-12-31T05:06:56.228Z,98906.03
2022-12-31T05:12:00.673Z,98928.59
2022-12-31T05:17:02.582Z,98937.25
2022-12-31T05:22:05.612Z,98939.81
2022-12-31T05:27:07.419Z,98939.88
2022-12-31T05:32:09.453Z,98958.06
2022-12-31T05:37:11.321Z,98970.13
2022-12-31T05:42:14.179Z,98969.31
2022-12-31T05:47:16.335Z,98971.00
2022-12-31T05:52:19.068Z,98985.72
2022-12-31T05:57:21.318Z,98985.72
2022-12-31T06:02:23.398Z,99001.28
2022-12-31T06:07:25.247Z,99006.44
2022-12-31T06:12:27.083Z,99006.47
2022-12-31T06:17:28.879Z,99028.09
2022-12-31T06:22:30.778Z,99032.44
2022-12-31T06:27:32.725Z,99049.72
2022-12-31T06:32:34.541Z,99055.75
2022-12-31T06:37:36.420Z,99069.63
2022-12-31T06:42:38.184Z,99075.69
2022-12-31T06:47:40.043Z,99092.09
2022-12-31T06:52:41.870Z,99092.97
2022-12-31T06:57:43.981Z,99099.91
2022-12-31T07:02:57.493Z,99109.38
2022-12-31T07:08:26.049Z,99118.94
2022-12-31T07:13:53.732Z,99117.19
2022-12-31T07:18:58.373Z,99118.06
2022-12-31T07:24:00.429Z,99128.41
2022-12-31T07:29:05.030Z,99132.72
2022-12-31T07:34:30.369Z,99139.66
2022-12-31T07:39:42.251Z,99143.97
2022-12-31T07:45:37.887Z,99155.22
2022-12-31T07:50:39.940Z,99151.75
2022-12-31T07:55:41.718Z,99163.81
2022-12-31T08:00:43.613Z,99169.00
2022-12-31T08:06:03.080Z,99170.78
2022-12-31T08:11:29.326Z,99184.59
2022-12-31T08:16:31.431Z,99197.56
2022-12-31T08:21:39.617Z,99198.41
2022-12-31T08:26:52.816Z,99183.75
2022-12-31T08:32:17.310Z,99200.16
2022-12-31T08:37:21.683Z,99195.75
2022-12-31T08:42:44.214Z,99193.13
2022-12-31T08:47:55.052Z,99188.78
2022-12-31T08:53:00.281Z,99179.31
2022-12-31T08:58:20.419Z,99186.28
2022-12-31T09:03:27.695Z,99191.44
2022-12-31T09:08:36.333Z,99211.34
2022-12-31T09:13:46.381Z,99220.88
2022-12-31T09:18:48.269Z,99225.22
2022-12-31T09:23:50.268Z,99220.91
2022-12-31T09:28:57.843Z,99214.78
2022-12-31T09:34:08.530Z,99225.13
2022-12-31T09:39:43.072Z,99217.34
2022-12-31T09:45:22.083Z,99229.53
2022-12-31T09:50:38.870Z,99239.84
2022-12-31T09:55:48.304Z,99263.25
2022-12-31T10:01:08.815Z,99271.06
2022-12-31T10:06:31.962Z,99293.56
2022-12-31T10:11:45.736Z,99292.78
2022-12-31T10:16:50.226Z,99292.75
2022-12-31T10:22:08.247Z,99288.31
2022-12-31T10:27:28.663Z,99283.97
2022-12-31T10:32:39.157Z,99270.97
2022-12-31T10:38:02.820Z,99288.38
2022-12-31T10:43:04.815Z,99283.97
2022-12-31T10:48:28.622Z,99283.00
2022-12-31T10:53:48.801Z,99306.38
2022-12-31T10:59:09.268Z,99302.91
2022-12-31T11:04:20.212Z,99313.25
2022-12-31T11:09:56.388Z,99334.91
2022-12-31T11:15:20.674Z,99329.66
2022-12-31T11:20:39.419Z,99351.41
2022-12-31T11:26:14.497Z,99348.84
2022-12-31T11:31:18.980Z,99360.19
2022-12-31T11:36:24.481Z,99375.84
2022-12-31T11:41:39.198Z,99392.38
2022-12-31T11:47:10.585Z,99401.97
2022-12-31T11:52:27.561Z,99394.16
2022-12-31T11:57:36.990Z,99401.94
2022-12-31T12:02:42.768Z,99402.78
2022-12-31T12:07:44.773Z,99403.69
2022-12-31T12:12:46.597Z,99406.25
2022-12-31T12:17:53.734Z,99408.00
2022-12-31T12:22:56.263Z,99419.28
2022-12-31T12:27:58.093Z,99414.94
2022-12-31T12:33:01.743Z,99418.44
2022-12-31T12:38:08.357Z,99420.16
2022-12-31T12:43:24.650Z,99425.34
2022-12-31T12:48:37.676Z,99420.16
2022-12-31T12:53:43.232Z,99414.09
2022-12-31T12:59:13.808Z,99407.19
2022-12-31T13:04:36.866Z,99409.75
2022-12-31T13:10:00.538Z,99424.53
2022-12-31T13:15:16.003Z,99417.56
2022-12-31T13:20:39.362Z,99421.06
2022-12-31T13:25:55.337Z,99409.78
2022-12-31T13:31:08.037Z,99412.38
2022-12-31T13:36:13.770Z,99411.50
2022-12-31T13:41:17.950Z,99419.31
2022-12-31T13:46:31.367Z,99436.63
2022-12-31T13:51:47.126Z,99434.06
2022-12-31T13:56:49.022Z,99425.38
2022-12-31T14:02:02.067Z,99417.56
2022-12-31T14:07:12.519Z,99419.31
2022-12-31T14:12:17.282Z,99421.03
2022-12-31T14:17:32.780Z,99413.25
2022-12-31T14:22:45.174Z,99404.56
2022-12-31T14:27:47.864Z,99410.63
2022-12-31T14:33:08.490Z,99407.19
2022-12-31T14:38:38.515Z,99406.31
2022-12-31T14:43:54.100Z,99411.50
2022-12-31T14:49:02.423Z,99421.91
2022-12-31T14:54:05.021Z,99420.19
2022-12-31T14:59:25.456Z,99420.16
2022-12-31T15:04:45.786Z,99429.69
2022-12-31T15:10:05.967Z,99427.94
2022-12-31T15:15:29.133Z,99408.88
2022-12-31T15:21:00.929Z,99423.59
2022-12-31T15:26:03.187Z,99435.72
2022-12-31T15:31:05.055Z,99419.25
2022-12-31T15:36:21.780Z,99414.06
2022-12-31T15:41:36.779Z,99401.97
2022-12-31T15:46:39.599Z,99396.72
2022-12-31T15:51:56.353Z,99408.00
2022-12-31T15:57:09.038Z,99405.41
2022-12-31T16:02:37.622Z,99407.09
2022-12-31T16:07:42.052Z,99407.13
2022-12-31T16:12:44.943Z,99402.78
2022-12-31T16:17:46.913Z,99409.69
2022-12-31T16:22:52.967Z,99413.16
2022-12-31T16:27:54.848Z,99402.72
2022-12-31T16:32:59.714Z,99398.41
2022-12-31T16:38:13.120Z,99390.63
2022-12-31T16:43:24.675Z,99379.34
2022-12-31T16:48:26.503Z,99379.38
2022-12-31T16:53:36.014Z,99384.56
2022-12-31T16:58:40.512Z,99374.13
2022-12-31T17:03:44.444Z,99379.34
2022-12-31T17:08:46.136Z,99386.31
2022-12-31T17:13:54.025Z,99377.63
2022-12-31T17:18:55.863Z,99367.25
2022-12-31T17:24:03.404Z,99362.94
2022-12-31T17:29:05.234Z,99349.09
2022-12-31T17:34:13.153Z,99344.78
2022-12-31T17:39:19.194Z,99340.47
2022-12-31T17:44:22.168Z,99334.38
2022-12-31T17:49:51.584Z,99336.13
2022-12-31T17:55:08.390Z,99325.66
2022-12-31T18:00:16.417Z,99332.59
2022-12-31T18:05:19.958Z,99328.25
2022-12-31T18:10:23.079Z,99323.94
2022-12-31T18:15:25.073Z,99316.13
2022-12-31T18:20:26.859Z,99310.03
2022-12-31T18:25:28.690Z,99297.06
2022-12-31T18:30:30.567Z,99302.22
2022-12-31T18:36:06.985Z,99298.78
2022-12-31T18:40:56.076Z,99302.28
2022-12-31T18:45:58.145Z,99292.81
2022-12-31T18:51:00.064Z,99281.56
2022-12-31T18:56:02.789Z,99272.94
2022-12-31T19:01:04.975Z,99268.59
2022-12-31T19:06:07.137Z,99269.41
2022-12-31T19:11:09.797Z,99259.03
2022-12-31T19:16:11.461Z,99248.69
2022-12-31T19:21:17.839Z,99240.91
2022-12-31T19:26:20.856Z,99239.19
2022-12-31T19:31:22.846Z,99228.78
2022-12-31T19:36:24.739Z,99222.72
2022-12-31T19:41:26.710Z,99214.94
2022-12-31T19:46:28.527Z,99213.22
2022-12-31T19:51:30.400Z,99210.59
2022-12-31T19:56:32.228Z,99203.72
2022-12-31T20:01:34.254Z,99213.22
2022-12-31T20:06:36.332Z,99209.75
2022-12-31T20:11:38.203Z,99226.19
2022-12-31T20:16:40.148Z,99217.56
2022-12-31T20:21:42.107Z,99215.81
2022-12-31T20:26:43.948Z,99188.16
2022-12-31T20:31:46.357Z,99176.00
2022-12-31T20:36:48.295Z,99172.56
2022-12-31T20:41:50.212Z,99155.25
2022-12-31T20:46:52.051Z,99131.06
2022-12-31T20:51:54.157Z,99124.97
2022-12-31T20:56:55.965Z,99096.44
2022-12-31T21:02:21.090Z,99111.13
2022-12-31T21:07:19.622Z,99098.16
2022-12-31T21:12:21.703Z,99092.09
2022-12-31T21:17:23.630Z,99096.41
2022-12-31T21:22:25.417Z,99096.41
2022-12-31T21:27:28.069Z,99094.66
2022-12-31T21:32:29.650Z,99100.75
2022-12-31T21:37:58.178Z,99090.38
2022-12-31T21:42:53.311Z,99083.50
2022-12-31T21:47:58.351Z,99075.69
2022-12-31T21:53:00.256Z,99080.84
2022-12-31T22:03:23.930Z,99043.66
2022-12-31T22:08:26.064Z,99047.97
2022-12-31T22:13:27.957Z,99041.97
2022-12-31T22:18:29.869Z,99036.78
2022-12-31T22:23:32.015Z,99022.91
2022-12-31T22:28:39.171Z,99027.22
2022-12-31T22:33:42.230Z,99026.38
2022-12-31T22:38:44.223Z,99007.34
2022-12-31T22:43:50.554Z,99000.44
2022-12-31T22:48:53.367Z,98995.22
2022-12-31T22:53:55.251Z,98974.47
2022-12-31T22:58:57.267Z,98977.09
2022-12-31T23:03:59.226Z,98981.38
2022-12-31T23:09:01.142Z,98968.44
2022-12-31T23:14:03.125Z,98953.72
2022-12-31T23:19:05.713Z,98941.63
2022-12-31T23:24:13.467Z,98941.63
2022-12-31T23:29:20.091Z,98939.00
2022-12-31T23:34:22.010Z,98939.00
2022-12-31T23:39:23.845Z,98941.53
2022-12-31T23:44:25.737Z,98938.09
2022-12-31T23:49:27.650Z,98931.19
2022-12-31T23:54:29.591Z,98922.50
2022-12-31T23:59:31.574Z,98910.41
